sensor_id;sensor_type;location;lat;lon;timestamp;P1;durP1;ratioP1;P2;durP2;ratioP2
28170;SDS011;15458;53.346;-1.688;2022-08-03T00:01:58;1.48;;;0.82;;
28170;SDS011;15458;53.346;-1.688;2022-08-03T00:04:26;2.22;;;0.30;;
28170;SDS011;15458;53.346;-1.688;2022-08-03T00:06:52;0.47;;;0.35;;
28170;SDS011;15458;53.346;-1.688;2022-08-03T00:09:18;2.33;;;0.45;;
28170;SDS011;15458;53.346;-1.688;2022-08-03T00:11:43;1.98;;;0.38;;
28170;SDS011;15458;53.346;-1.688;2022-08-03T00:14:09;0.57;;;0.30;;
28170;SDS011;15458;53.346;-1.688;2022-08-03T00:16:35;0.85;;;0.25;;
28170;SDS011;15458;53.346;-1.688;2022-08-03T00:19:01;0.20;;;0.20;;
28170;SDS011;15458;53.346;-1.688;2022-08-03T00:21:27;1.10;;;0.30;;
28170;SDS011;15458;53.346;-1.688;2022-08-03T00:23:56;1.13;;;0.38;;
28170;SDS011;15458;53.346;-1.688;2022-08-03T00:26:22;1.42;;;0.30;;
28170;SDS011;15458;53.346;-1.688;2022-08-03T00:28:49;0.38;;;0.20;;
28170;SDS011;15458;53.346;-1.688;2022-08-03T00:31:15;0.38;;;0.28;;
28170;SDS011;15458;53.346;-1.688;2022-08-03T00:33:41;0.17;;;0.17;;
28170;SDS011;15458;53.346;-1.688;2022-08-03T00:36:07;1.05;;;0.50;;
28170;SDS011;15458;53.346;-1.688;2022-08-03T00:38:32;0.95;;;0.40;;
28170;SDS011;15458;53.346;-1.688;2022-08-03T00:40:58;0.55;;;0.43;;
28170;SDS011;15458;53.346;-1.688;2022-08-03T00:43:25;0.50;;;0.30;;
28170;SDS011;15458;53.346;-1.688;2022-08-03T00:45:51;0.15;;;0.13;;
28170;SDS011;15458;53.346;-1.688;2022-08-03T00:48:18;0.20;;;0.20;;
28170;SDS011;15458;53.346;-1.688;2022-08-03T00:50:47;0.70;;;0.40;;
28170;SDS011;15458;53.346;-1.688;2022-08-03T00:53:13;1.48;;;0.32;;
28170;SDS011;15458;53.346;-1.688;2022-08-03T00:55:39;0.32;;;0.20;;
28170;SDS011;15458;53.346;-1.688;2022-08-03T00:58:06;0.52;;;0.30;;
28170;SDS011;15458;53.346;-1.688;2022-08-03T01:00:36;0.63;;;0.40;;
28170;SDS011;15458;53.346;-1.688;2022-08-03T01:05:32;1.23;;;0.13;;
28170;SDS011;15458;53.346;-1.688;2022-08-03T01:08:11;0.60;;;0.30;;
28170;SDS011;15458;53.346;-1.688;2022-08-03T01:11:19;0.47;;;0.20;;
28170;SDS011;15458;53.346;-1.688;2022-08-03T01:13:47;0.10;;;0.10;;
28170;SDS011;15458;53.346;-1.688;2022-08-03T01:25:09;0.20;;;0.20;;
28170;SDS011;15458;53.346;-1.688;2022-08-03T01:30:32;0.20;;;0.20;;
28170;SDS011;15458;53.346;-1.688;2022-08-03T01:33:05;0.57;;;0.10;;
28170;SDS011;15458;53.346;-1.688;2022-08-03T01:35:46;2.65;;;0.30;;
28170;SDS011;15458;53.346;-1.688;2022-08-03T01:38:24;0.17;;;0.17;;
28170;SDS011;15458;53.346;-1.688;2022-08-03T01:40:53;0.60;;;0.20;;
28170;SDS011;15458;53.346;-1.688;2022-08-03T01:43:22;0.20;;;0.20;;
28170;SDS011;15458;53.346;-1.688;2022-08-03T01:45:52;1.08;;;0.30;;
28170;SDS011;15458;53.346;-1.688;2022-08-03T01:48:20;0.45;;;0.30;;
28170;SDS011;15458;53.346;-1.688;2022-08-03T01:50:47;0.30;;;0.17;;
28170;SDS011;15458;53.346;-1.688;2022-08-03T01:53:14;0.50;;;0.30;;
28170;SDS011;15458;53.346;-1.688;2022-08-03T01:55:43;0.60;;;0.17;;
28170;SDS011;15458;53.346;-1.688;2022-08-03T01:58:12;0.65;;;0.22;;
28170;SDS011;15458;53.346;-1.688;2022-08-03T02:00:43;0.47;;;0.30;;
28170;SDS011;15458;53.346;-1.688;2022-08-03T02:03:13;1.85;;;0.38;;
28170;SDS011;15458;53.346;-1.688;2022-08-03T02:05:40;0.50;;;0.30;;
28170;SDS011;15458;53.346;-1.688;2022-08-03T02:08:09;0.82;;;0.30;;
28170;SDS011;15458;53.346;-1.688;2022-08-03T02:10:37;1.10;;;0.25;;
28170;SDS011;15458;53.346;-1.688;2022-08-03T02:13:06;0.80;;;0.60;;
28170;SDS011;15458;53.346;-1.688;2022-08-03T02:15:34;0.85;;;0.30;;
28170;SDS011;15458;53.346;-1.688;2022-08-03T02:18:02;0.70;;;0.28;;
28170;SDS011;15458;53.346;-1.688;2022-08-03T02:20:31;0.30;;;0.28;;
28170;SDS011;15458;53.346;-1.688;2022-08-03T02:22:57;8.40;;;0.38;;
28170;SDS011;15458;53.346;-1.688;2022-08-03T02:25:23;1.00;;;0.30;;
28170;SDS011;15458;53.346;-1.688;2022-08-03T02:27:55;0.20;;;0.20;;
28170;SDS011;15458;53.346;-1.688;2022-08-03T02:30:28;1.95;;;0.63;;
28170;SDS011;15458;53.346;-1.688;2022-08-03T02:33:02;0.13;;;0.10;;
28170;SDS011;15458;53.346;-1.688;2022-08-03T02:35:31;0.30;;;0.30;;
28170;SDS011;15458;53.346;-1.688;2022-08-03T02:38:01;0.90;;;0.17;;
28170;SDS011;15458;53.346;-1.688;2022-08-03T02:40:31;0.20;;;0.20;;
28170;SDS011;15458;53.346;-1.688;2022-08-03T02:43:01;0.47;;;0.20;;
28170;SDS011;15458;53.346;-1.688;2022-08-03T02:45:29;1.30;;;0.22;;
28170;SDS011;15458;53.346;-1.688;2022-08-03T02:50:28;0.75;;;0.20;;
28170;SDS011;15458;53.346;-1.688;2022-08-03T02:52:54;0.35;;;0.30;;
28170;SDS011;15458;53.346;-1.688;2022-08-03T02:55:22;0.57;;;0.28;;
28170;SDS011;15458;53.346;-1.688;2022-08-03T02:57:51;1.55;;;0.20;;
28170;SDS011;15458;53.346;-1.688;2022-08-03T03:00:18;3.50;;;0.20;;
28170;SDS011;15458;53.346;-1.688;2022-08-03T03:02:44;3.40;;;0.30;;
28170;SDS011;15458;53.346;-1.688;2022-08-03T03:05:10;0.63;;;0.30;;
28170;SDS011;15458;53.346;-1.688;2022-08-03T03:07:37;0.10;;;0.10;;
28170;SDS011;15458;53.346;-1.688;2022-08-03T03:10:04;1.58;;;0.13;;
28170;SDS011;15458;53.346;-1.688;2022-08-03T03:12:31;0.20;;;0.20;;
28170;SDS011;15458;53.346;-1.688;2022-08-03T03:14:59;0.77;;;0.32;;
28170;SDS011;15458;53.346;-1.688;2022-08-03T03:17:25;1.58;;;0.30;;
28170;SDS011;15458;53.346;-1.688;2022-08-03T03:19:52;0.47;;;0.10;;
28170;SDS011;15458;53.346;-1.688;2022-08-03T03:22:19;0.25;;;0.22;;
28170;SDS011;15458;53.346;-1.688;2022-08-03T03:24:47;5.30;;;0.40;;
28170;SDS011;15458;53.346;-1.688;2022-08-03T03:27:15;0.52;;;0.38;;
28170;SDS011;15458;53.346;-1.688;2022-08-03T03:29:42;0.30;;;0.30;;
28170;SDS011;15458;53.346;-1.688;2022-08-03T03:32:08;0.55;;;0.30;;
28170;SDS011;15458;53.346;-1.688;2022-08-03T03:34:34;0.52;;;0.40;;
28170;SDS011;15458;53.346;-1.688;2022-08-03T03:37:01;0.43;;;0.40;;
28170;SDS011;15458;53.346;-1.688;2022-08-03T03:39:27;1.50;;;0.45;;
28170;SDS011;15458;53.346;-1.688;2022-08-03T03:41:52;1.55;;;0.40;;
28170;SDS011;15458;53.346;-1.688;2022-08-03T03:44:18;0.30;;;0.30;;
28170;SDS011;15458;53.346;-1.688;2022-08-03T03:46:44;1.25;;;0.50;;
28170;SDS011;15458;53.346;-1.688;2022-08-03T03:49:10;2.20;;;0.60;;
28170;SDS011;15458;53.346;-1.688;2022-08-03T03:51:36;0.40;;;0.40;;
28170;SDS011;15458;53.346;-1.688;2022-08-03T03:54:03;1.52;;;0.63;;
28170;SDS011;15458;53.346;-1.688;2022-08-03T03:56:31;3.15;;;0.50;;
28170;SDS011;15458;53.346;-1.688;2022-08-03T03:58:57;1.40;;;0.40;;
28170;SDS011;15458;53.346;-1.688;2022-08-03T04:01:23;0.35;;;0.30;;
28170;SDS011;15458;53.346;-1.688;2022-08-03T04:03:49;1.75;;;0.40;;
28170;SDS011;15458;53.346;-1.688;2022-08-03T04:06:15;0.30;;;0.30;;
28170;SDS011;15458;53.346;-1.688;2022-08-03T04:09:00;2.25;;;0.40;;
28170;SDS011;15458;53.346;-1.688;2022-08-03T04:11:46;0.30;;;0.30;;
28170;SDS011;15458;53.346;-1.688;2022-08-03T04:14:17;0.63;;;0.20;;
28170;SDS011;15458;53.346;-1.688;2022-08-03T04:16:51;0.52;;;0.30;;
28170;SDS011;15458;53.346;-1.688;2022-08-03T04:22:00;0.77;;;0.52;;
28170;SDS011;15458;53.346;-1.688;2022-08-03T04:24:38;0.45;;;0.40;;
28170;SDS011;15458;53.346;-1.688;2022-08-03T04:27:08;1.33;;;0.50;;
28170;SDS011;15458;53.346;-1.688;2022-08-03T04:32:05;0.50;;;0.40;;
28170;SDS011;15458;53.346;-1.688;2022-08-03T04:34:32;0.88;;;0.50;;
28170;SDS011;15458;53.346;-1.688;2022-08-03T04:37:00;1.30;;;0.40;;
28170;SDS011;15458;53.346;-1.688;2022-08-03T04:39:30;2.47;;;0.50;;
28170;SDS011;15458;53.346;-1.688;2022-08-03T04:41:57;2.15;;;0.50;;
28170;SDS011;15458;53.346;-1.688;2022-08-03T04:44:27;1.25;;;0.75;;
28170;SDS011;15458;53.346;-1.688;2022-08-03T04:46:55;1.50;;;0.75;;
28170;SDS011;15458;53.346;-1.688;2022-08-03T04:49:23;1.40;;;0.55;;
28170;SDS011;15458;53.346;-1.688;2022-08-03T04:51:50;3.20;;;0.65;;
28170;SDS011;15458;53.346;-1.688;2022-08-03T04:54:16;3.13;;;0.60;;
28170;SDS011;15458;53.346;-1.688;2022-08-03T04:56:42;1.60;;;0.80;;
28170;SDS011;15458;53.346;-1.688;2022-08-03T04:59:09;1.98;;;0.57;;
28170;SDS011;15458;53.346;-1.688;2022-08-03T05:01:37;1.02;;;0.70;;
28170;SDS011;15458;53.346;-1.688;2022-08-03T05:04:05;0.90;;;0.70;;
28170;SDS011;15458;53.346;-1.688;2022-08-03T05:06:30;1.15;;;0.45;;
28170;SDS011;15458;53.346;-1.688;2022-08-03T05:08:56;0.85;;;0.60;;
28170;SDS011;15458;53.346;-1.688;2022-08-03T05:11:22;1.58;;;0.60;;
28170;SDS011;15458;53.346;-1.688;2022-08-03T05:13:48;2.65;;;1.23;;
28170;SDS011;15458;53.346;-1.688;2022-08-03T05:16:13;0.80;;;0.80;;
28170;SDS011;15458;53.346;-1.688;2022-08-03T05:18:40;1.73;;;0.70;;
28170;SDS011;15458;53.346;-1.688;2022-08-03T05:21:06;2.72;;;0.70;;
28170;SDS011;15458;53.346;-1.688;2022-08-03T05:23:33;3.05;;;0.98;;
28170;SDS011;15458;53.346;-1.688;2022-08-03T05:25:59;0.98;;;0.50;;
28170;SDS011;15458;53.346;-1.688;2022-08-03T05:28:25;0.98;;;0.65;;
28170;SDS011;15458;53.346;-1.688;2022-08-03T05:30:51;4.85;;;0.75;;
28170;SDS011;15458;53.346;-1.688;2022-08-03T05:33:16;1.42;;;0.60;;
28170;SDS011;15458;53.346;-1.688;2022-08-03T05:35:42;2.88;;;0.63;;
28170;SDS011;15458;53.346;-1.688;2022-08-03T05:38:08;2.30;;;0.63;;
28170;SDS011;15458;53.346;-1.688;2022-08-03T05:40:42;1.08;;;0.70;;
28170;SDS011;15458;53.346;-1.688;2022-08-03T05:43:08;1.77;;;0.63;;
28170;SDS011;15458;53.346;-1.688;2022-08-03T05:45:35;1.85;;;0.65;;
28170;SDS011;15458;53.346;-1.688;2022-08-03T05:48:02;2.17;;;1.00;;
28170;SDS011;15458;53.346;-1.688;2022-08-03T05:50:29;3.15;;;0.90;;
28170;SDS011;15458;53.346;-1.688;2022-08-03T05:52:55;2.08;;;1.35;;
28170;SDS011;15458;53.346;-1.688;2022-08-03T05:55:23;2.58;;;0.90;;
28170;SDS011;15458;53.346;-1.688;2022-08-03T05:57:49;1.98;;;0.88;;
28170;SDS011;15458;53.346;-1.688;2022-08-03T06:00:15;2.58;;;0.70;;
28170;SDS011;15458;53.346;-1.688;2022-08-03T06:02:41;2.33;;;1.10;;
28170;SDS011;15458;53.346;-1.688;2022-08-03T06:05:07;2.63;;;1.00;;
28170;SDS011;15458;53.346;-1.688;2022-08-03T06:07:33;2.15;;;0.95;;
28170;SDS011;15458;53.346;-1.688;2022-08-03T06:09:59;4.72;;;1.10;;
28170;SDS011;15458;53.346;-1.688;2022-08-03T06:12:28;3.25;;;1.15;;
28170;SDS011;15458;53.346;-1.688;2022-08-03T06:14:54;3.38;;;1.30;;
28170;SDS011;15458;53.346;-1.688;2022-08-03T06:17:21;1.38;;;0.88;;
28170;SDS011;15458;53.346;-1.688;2022-08-03T06:19:47;3.95;;;1.52;;
28170;SDS011;15458;53.346;-1.688;2022-08-03T06:22:15;2.53;;;1.20;;
28170;SDS011;15458;53.346;-1.688;2022-08-03T06:24:41;2.72;;;1.10;;
28170;SDS011;15458;53.346;-1.688;2022-08-03T06:27:08;3.28;;;1.30;;
28170;SDS011;15458;53.346;-1.688;2022-08-03T06:29:34;3.53;;;1.40;;
28170;SDS011;15458;53.346;-1.688;2022-08-03T06:31:59;3.88;;;1.10;;
28170;SDS011;15458;53.346;-1.688;2022-08-03T06:34:26;3.22;;;1.23;;
28170;SDS011;15458;53.346;-1.688;2022-08-03T06:36:52;1.75;;;1.10;;
28170;SDS011;15458;53.346;-1.688;2022-08-03T06:39:18;4.88;;;0.90;;
28170;SDS011;15458;53.346;-1.688;2022-08-03T06:41:45;1.05;;;0.85;;
28170;SDS011;15458;53.346;-1.688;2022-08-03T06:44:11;4.88;;;1.30;;
28170;SDS011;15458;53.346;-1.688;2022-08-03T06:46:37;1.50;;;1.40;;
28170;SDS011;15458;53.346;-1.688;2022-08-03T06:49:03;3.53;;;1.20;;
28170;SDS011;15458;53.346;-1.688;2022-08-03T06:51:29;3.10;;;1.45;;
28170;SDS011;15458;53.346;-1.688;2022-08-03T06:53:55;1.40;;;1.00;;
28170;SDS011;15458;53.346;-1.688;2022-08-03T06:56:20;3.25;;;1.45;;
28170;SDS011;15458;53.346;-1.688;2022-08-03T06:58:46;4.25;;;1.00;;
28170;SDS011;15458;53.346;-1.688;2022-08-03T07:01:13;1.35;;;1.00;;
28170;SDS011;15458;53.346;-1.688;2022-08-03T07:03:39;5.03;;;1.27;;
28170;SDS011;15458;53.346;-1.688;2022-08-03T07:06:05;2.15;;;1.10;;
28170;SDS011;15458;53.346;-1.688;2022-08-03T07:08:31;3.70;;;1.10;;
28170;SDS011;15458;53.346;-1.688;2022-08-03T07:10:57;5.10;;;1.40;;
28170;SDS011;15458;53.346;-1.688;2022-08-03T07:13:23;2.88;;;1.40;;
28170;SDS011;15458;53.346;-1.688;2022-08-03T07:15:49;8.77;;;1.40;;
28170;SDS011;15458;53.346;-1.688;2022-08-03T07:18:15;1.83;;;1.20;;
28170;SDS011;15458;53.346;-1.688;2022-08-03T07:20:41;3.05;;;1.10;;
28170;SDS011;15458;53.346;-1.688;2022-08-03T07:23:06;4.35;;;1.08;;
28170;SDS011;15458;53.346;-1.688;2022-08-03T07:25:33;4.85;;;1.25;;
28170;SDS011;15458;53.346;-1.688;2022-08-03T07:27:59;4.32;;;1.40;;
28170;SDS011;15458;53.346;-1.688;2022-08-03T07:30:25;7.25;;;1.30;;
28170;SDS011;15458;53.346;-1.688;2022-08-03T07:32:52;5.57;;;1.30;;
28170;SDS011;15458;53.346;-1.688;2022-08-03T07:35:21;5.60;;;1.20;;
28170;SDS011;15458;53.346;-1.688;2022-08-03T07:37:48;3.30;;;1.50;;
28170;SDS011;15458;53.346;-1.688;2022-08-03T07:40:14;5.35;;;1.30;;
28170;SDS011;15458;53.346;-1.688;2022-08-03T07:42:42;4.63;;;1.33;;
28170;SDS011;15458;53.346;-1.688;2022-08-03T07:45:08;4.93;;;1.52;;
28170;SDS011;15458;53.346;-1.688;2022-08-03T07:47:34;3.65;;;1.50;;
28170;SDS011;15458;53.346;-1.688;2022-08-03T07:50:00;3.97;;;1.73;;
28170;SDS011;15458;53.346;-1.688;2022-08-03T07:52:26;6.97;;;1.40;;
28170;SDS011;15458;53.346;-1.688;2022-08-03T07:55:11;10.02;;;2.13;;
28170;SDS011;15458;53.346;-1.688;2022-08-03T07:57:37;5.85;;;2.08;;
28170;SDS011;15458;53.346;-1.688;2022-08-03T08:00:04;6.57;;;1.90;;
28170;SDS011;15458;53.346;-1.688;2022-08-03T08:02:35;4.45;;;1.55;;
28170;SDS011;15458;53.346;-1.688;2022-08-03T08:05:00;4.65;;;1.73;;
28170;SDS011;15458;53.346;-1.688;2022-08-03T08:07:26;5.28;;;1.63;;
28170;SDS011;15458;53.346;-1.688;2022-08-03T08:09:52;3.90;;;1.55;;
28170;SDS011;15458;53.346;-1.688;2022-08-03T08:12:18;5.55;;;1.80;;
28170;SDS011;15458;53.346;-1.688;2022-08-03T08:14:43;3.50;;;1.55;;
28170;SDS011;15458;53.346;-1.688;2022-08-03T08:17:12;2.90;;;2.00;;
28170;SDS011;15458;53.346;-1.688;2022-08-03T08:19:38;4.00;;;1.48;;
28170;SDS011;15458;53.346;-1.688;2022-08-03T08:22:05;3.75;;;1.77;;
28170;SDS011;15458;53.346;-1.688;2022-08-03T08:24:31;5.93;;;1.20;;
28170;SDS011;15458;53.346;-1.688;2022-08-03T08:26:58;1.85;;;1.10;;
28170;SDS011;15458;53.346;-1.688;2022-08-03T08:29:25;4.65;;;1.58;;
28170;SDS011;15458;53.346;-1.688;2022-08-03T08:31:51;2.03;;;1.35;;
28170;SDS011;15458;53.346;-1.688;2022-08-03T08:34:17;2.55;;;1.23;;
28170;SDS011;15458;53.346;-1.688;2022-08-03T08:36:42;4.82;;;1.40;;
28170;SDS011;15458;53.346;-1.688;2022-08-03T08:39:09;3.70;;;1.13;;
28170;SDS011;15458;53.346;-1.688;2022-08-03T08:41:39;3.88;;;1.40;;
28170;SDS011;15458;53.346;-1.688;2022-08-03T08:44:07;3.78;;;1.27;;
28170;SDS011;15458;53.346;-1.688;2022-08-03T08:46:35;3.28;;;1.20;;
28170;SDS011;15458;53.346;-1.688;2022-08-03T08:49:03;1.65;;;1.05;;
28170;SDS011;15458;53.346;-1.688;2022-08-03T08:51:33;5.40;;;1.97;;
28170;SDS011;15458;53.346;-1.688;2022-08-03T08:54:02;2.78;;;1.80;;
28170;SDS011;15458;53.346;-1.688;2022-08-03T08:56:28;4.85;;;1.80;;
28170;SDS011;15458;53.346;-1.688;2022-08-03T08:58:57;2.97;;;1.27;;
28170;SDS011;15458;53.346;-1.688;2022-08-03T09:01:24;5.78;;;1.52;;
28170;SDS011;15458;53.346;-1.688;2022-08-03T09:03:50;4.95;;;1.50;;
28170;SDS011;15458;53.346;-1.688;2022-08-03T09:06:18;3.78;;;1.40;;
28170;SDS011;15458;53.346;-1.688;2022-08-03T09:08:44;4.13;;;1.42;;
28170;SDS011;15458;53.346;-1.688;2022-08-03T09:11:10;6.97;;;1.38;;
28170;SDS011;15458;53.346;-1.688;2022-08-03T09:13:37;4.73;;;1.40;;
28170;SDS011;15458;53.346;-1.688;2022-08-03T09:16:13;4.30;;;1.98;;
28170;SDS011;15458;53.346;-1.688;2022-08-03T09:18:51;4.68;;;1.90;;
28170;SDS011;15458;53.346;-1.688;2022-08-03T09:21:19;5.68;;;1.40;;
28170;SDS011;15458;53.346;-1.688;2022-08-03T09:23:53;6.45;;;1.42;;
28170;SDS011;15458;53.346;-1.688;2022-08-03T09:26:25;5.03;;;1.50;;
28170;SDS011;15458;53.346;-1.688;2022-08-03T09:28:55;8.30;;;1.33;;
28170;SDS011;15458;53.346;-1.688;2022-08-03T09:31:31;6.07;;;1.70;;
28170;SDS011;15458;53.346;-1.688;2022-08-03T09:34:02;2.75;;;1.58;;
28170;SDS011;15458;53.346;-1.688;2022-08-03T09:36:33;7.15;;;1.73;;
28170;SDS011;15458;53.346;-1.688;2022-08-03T09:39:04;3.92;;;1.60;;
28170;SDS011;15458;53.346;-1.688;2022-08-03T09:41:35;4.53;;;1.50;;
28170;SDS011;15458;53.346;-1.688;2022-08-03T09:44:02;5.93;;;1.50;;
28170;SDS011;15458;53.346;-1.688;2022-08-03T09:46:28;6.00;;;1.60;;
28170;SDS011;15458;53.346;-1.688;2022-08-03T09:49:10;4.20;;;1.50;;
28170;SDS011;15458;53.346;-1.688;2022-08-03T09:51:37;5.10;;;1.60;;
28170;SDS011;15458;53.346;-1.688;2022-08-03T09:54:05;6.22;;;1.85;;
28170;SDS011;15458;53.346;-1.688;2022-08-03T09:56:42;7.40;;;1.77;;
28170;SDS011;15458;53.346;-1.688;2022-08-03T09:59:15;7.00;;;1.60;;
28170;SDS011;15458;53.346;-1.688;2022-08-03T10:01:48;7.97;;;1.67;;
28170;SDS011;15458;53.346;-1.688;2022-08-03T10:04:14;4.00;;;1.42;;
28170;SDS011;15458;53.346;-1.688;2022-08-03T10:06:43;7.10;;;1.90;;
28170;SDS011;15458;53.346;-1.688;2022-08-03T10:09:14;6.70;;;1.58;;
28170;SDS011;15458;53.346;-1.688;2022-08-03T10:11:41;2.78;;;1.90;;
28170;SDS011;15458;53.346;-1.688;2022-08-03T10:14:10;3.10;;;1.75;;
28170;SDS011;15458;53.346;-1.688;2022-08-03T10:16:43;4.90;;;1.70;;
28170;SDS011;15458;53.346;-1.688;2022-08-03T10:19:10;3.85;;;1.60;;
28170;SDS011;15458;53.346;-1.688;2022-08-03T10:21:47;3.60;;;1.60;;
28170;SDS011;15458;53.346;-1.688;2022-08-03T10:24:19;4.53;;;2.08;;
28170;SDS011;15458;53.346;-1.688;2022-08-03T10:26:48;8.43;;;2.10;;
28170;SDS011;15458;53.346;-1.688;2022-08-03T10:29:21;4.38;;;1.58;;
28170;SDS011;15458;53.346;-1.688;2022-08-03T10:43:32;3.70;;;1.50;;
28170;SDS011;15458;53.346;-1.688;2022-08-03T10:45:51;5.60;;;1.58;;
28170;SDS011;15458;53.346;-1.688;2022-08-03T10:48:17;5.15;;;1.58;;
28170;SDS011;15458;53.346;-1.688;2022-08-03T10:50:45;6.70;;;2.00;;
28170;SDS011;15458;53.346;-1.688;2022-08-03T10:53:14;5.60;;;1.95;;
28170;SDS011;15458;53.346;-1.688;2022-08-03T10:55:41;5.20;;;2.25;;
28170;SDS011;15458;53.346;-1.688;2022-08-03T11:01:08;5.53;;;1.67;;
28170;SDS011;15458;53.346;-1.688;2022-08-03T11:06:23;6.40;;;2.53;;
28170;SDS011;15458;53.346;-1.688;2022-08-03T11:11:34;5.22;;;1.70;;
28170;SDS011;15458;53.346;-1.688;2022-08-03T11:14:08;5.00;;;1.60;;
28170;SDS011;15458;53.346;-1.688;2022-08-03T11:16:39;8.70;;;2.15;;
28170;SDS011;15458;53.346;-1.688;2022-08-03T11:19:10;3.85;;;1.77;;
28170;SDS011;15458;53.346;-1.688;2022-08-03T11:30:06;8.80;;;1.55;;
28170;SDS011;15458;53.346;-1.688;2022-08-03T11:45:56;4.93;;;1.50;;
28170;SDS011;15458;53.346;-1.688;2022-08-03T11:48:26;4.38;;;1.48;;
28170;SDS011;15458;53.346;-1.688;2022-08-03T11:51:03;4.80;;;1.55;;
28170;SDS011;15458;53.346;-1.688;2022-08-03T11:53:31;4.80;;;1.80;;
28170;SDS011;15458;53.346;-1.688;2022-08-03T11:55:58;6.95;;;1.65;;
28170;SDS011;15458;53.346;-1.688;2022-08-03T11:58:27;5.43;;;1.40;;
28170;SDS011;15458;53.346;-1.688;2022-08-03T12:01:02;3.22;;;1.60;;
28170;SDS011;15458;53.346;-1.688;2022-08-03T12:03:32;4.57;;;1.58;;
28170;SDS011;15458;53.346;-1.688;2022-08-03T12:05:59;7.55;;;1.67;;
28170;SDS011;15458;53.346;-1.688;2022-08-03T12:08:31;6.70;;;1.98;;
28170;SDS011;15458;53.346;-1.688;2022-08-03T12:10:58;4.95;;;1.85;;
28170;SDS011;15458;53.346;-1.688;2022-08-03T12:13:25;3.60;;;1.70;;
28170;SDS011;15458;53.346;-1.688;2022-08-03T12:15:59;4.10;;;1.60;;
28170;SDS011;15458;53.346;-1.688;2022-08-03T12:18:26;6.28;;;1.73;;
28170;SDS011;15458;53.346;-1.688;2022-08-03T12:20:52;4.78;;;1.38;;
28170;SDS011;15458;53.346;-1.688;2022-08-03T12:23:27;3.70;;;1.42;;
28170;SDS011;15458;53.346;-1.688;2022-08-03T12:25:59;3.95;;;1.60;;
28170;SDS011;15458;53.346;-1.688;2022-08-03T12:28:32;3.13;;;1.50;;
28170;SDS011;15458;53.346;-1.688;2022-08-03T12:31:05;12.02;;;1.92;;
28170;SDS011;15458;53.346;-1.688;2022-08-03T12:33:53;6.32;;;2.25;;
28170;SDS011;15458;53.346;-1.688;2022-08-03T12:36:23;3.30;;;1.52;;
28170;SDS011;15458;53.346;-1.688;2022-08-03T12:38:56;4.18;;;1.30;;
28170;SDS011;15458;53.346;-1.688;2022-08-03T12:41:27;7.28;;;1.60;;
28170;SDS011;15458;53.346;-1.688;2022-08-03T12:43:55;8.85;;;1.73;;
28170;SDS011;15458;53.346;-1.688;2022-08-03T12:46:21;3.75;;;1.65;;
28170;SDS011;15458;53.346;-1.688;2022-08-03T12:51:31;6.57;;;1.73;;
28170;SDS011;15458;53.346;-1.688;2022-08-03T12:53:59;5.55;;;1.63;;
28170;SDS011;15458;53.346;-1.688;2022-08-03T12:56:25;5.18;;;1.73;;
28170;SDS011;15458;53.346;-1.688;2022-08-03T12:58:51;9.95;;;1.70;;
28170;SDS011;15458;53.346;-1.688;2022-08-03T13:01:18;4.53;;;1.63;;
28170;SDS011;15458;53.346;-1.688;2022-08-03T13:03:47;4.28;;;1.70;;
28170;SDS011;15458;53.346;-1.688;2022-08-03T13:06:14;9.18;;;2.15;;
28170;SDS011;15458;53.346;-1.688;2022-08-03T13:08:41;3.88;;;1.58;;
28170;SDS011;15458;53.346;-1.688;2022-08-03T13:11:21;4.65;;;1.98;;
28170;SDS011;15458;53.346;-1.688;2022-08-03T13:13:48;8.00;;;1.65;;
28170;SDS011;15458;53.346;-1.688;2022-08-03T13:16:15;8.18;;;1.70;;
28170;SDS011;15458;53.346;-1.688;2022-08-03T13:18:41;7.43;;;1.95;;
28170;SDS011;15458;53.346;-1.688;2022-08-03T13:21:06;4.75;;;1.50;;
28170;SDS011;15458;53.346;-1.688;2022-08-03T13:23:32;6.40;;;1.65;;
28170;SDS011;15458;53.346;-1.688;2022-08-03T13:25:58;6.63;;;1.63;;
28170;SDS011;15458;53.346;-1.688;2022-08-03T13:28:24;5.78;;;1.65;;
28170;SDS011;15458;53.346;-1.688;2022-08-03T13:30:49;9.50;;;3.05;;
28170;SDS011;15458;53.346;-1.688;2022-08-03T13:33:16;4.40;;;1.85;;
28170;SDS011;15458;53.346;-1.688;2022-08-03T13:35:41;8.13;;;1.90;;
28170;SDS011;15458;53.346;-1.688;2022-08-03T13:38:07;11.80;;;1.63;;
28170;SDS011;15458;53.346;-1.688;2022-08-03T13:40:33;5.65;;;1.70;;
28170;SDS011;15458;53.346;-1.688;2022-08-03T13:42:58;4.55;;;1.60;;
28170;SDS011;15458;53.346;-1.688;2022-08-03T13:45:24;5.20;;;1.90;;
28170;SDS011;15458;53.346;-1.688;2022-08-03T13:47:51;4.72;;;1.35;;
28170;SDS011;15458;53.346;-1.688;2022-08-03T13:50:20;2.75;;;1.40;;
28170;SDS011;15458;53.346;-1.688;2022-08-03T13:52:46;5.88;;;1.90;;
28170;SDS011;15458;53.346;-1.688;2022-08-03T13:55:12;3.25;;;1.40;;
28170;SDS011;15458;53.346;-1.688;2022-08-03T13:57:38;5.07;;;1.58;;
28170;SDS011;15458;53.346;-1.688;2022-08-03T14:00:04;4.38;;;1.60;;
28170;SDS011;15458;53.346;-1.688;2022-08-03T14:02:31;5.65;;;1.70;;
28170;SDS011;15458;53.346;-1.688;2022-08-03T14:04:56;3.63;;;1.50;;
28170;SDS011;15458;53.346;-1.688;2022-08-03T14:07:22;3.42;;;1.20;;
28170;SDS011;15458;53.346;-1.688;2022-08-03T14:09:48;2.97;;;1.45;;
28170;SDS011;15458;53.346;-1.688;2022-08-03T14:12:13;4.40;;;1.83;;
28170;SDS011;15458;53.346;-1.688;2022-08-03T14:14:39;4.93;;;1.33;;
28170;SDS011;15458;53.346;-1.688;2022-08-03T14:17:05;2.83;;;1.30;;
28170;SDS011;15458;53.346;-1.688;2022-08-03T14:19:31;3.78;;;1.50;;
28170;SDS011;15458;53.346;-1.688;2022-08-03T14:21:57;11.40;;;1.95;;
28170;SDS011;15458;53.346;-1.688;2022-08-03T14:24:23;2.97;;;1.20;;
28170;SDS011;15458;53.346;-1.688;2022-08-03T14:26:50;5.03;;;1.23;;
28170;SDS011;15458;53.346;-1.688;2022-08-03T14:29:15;4.80;;;1.10;;
28170;SDS011;15458;53.346;-1.688;2022-08-03T14:31:41;3.90;;;1.27;;
28170;SDS011;15458;53.346;-1.688;2022-08-03T14:34:07;5.25;;;1.63;;
28170;SDS011;15458;53.346;-1.688;2022-08-03T14:36:33;3.78;;;1.05;;
28170;SDS011;15458;53.346;-1.688;2022-08-03T14:38:58;1.48;;;1.10;;
28170;SDS011;15458;53.346;-1.688;2022-08-03T14:41:26;4.63;;;1.38;;
28170;SDS011;15458;53.346;-1.688;2022-08-03T14:43:51;5.45;;;1.30;;
28170;SDS011;15458;53.346;-1.688;2022-08-03T14:46:18;5.63;;;1.20;;
28170;SDS011;15458;53.346;-1.688;2022-08-03T14:48:44;4.10;;;0.93;;
28170;SDS011;15458;53.346;-1.688;2022-08-03T14:51:09;4.20;;;1.20;;
28170;SDS011;15458;53.346;-1.688;2022-08-03T14:53:35;3.80;;;1.45;;
28170;SDS011;15458;53.346;-1.688;2022-08-03T14:56:01;3.72;;;1.20;;
28170;SDS011;15458;53.346;-1.688;2022-08-03T14:58:27;4.95;;;1.23;;
28170;SDS011;15458;53.346;-1.688;2022-08-03T15:00:53;3.78;;;0.98;;
28170;SDS011;15458;53.346;-1.688;2022-08-03T15:03:20;5.50;;;1.27;;
28170;SDS011;15458;53.346;-1.688;2022-08-03T15:05:56;6.18;;;1.00;;
28170;SDS011;15458;53.346;-1.688;2022-08-03T15:08:22;3.97;;;1.52;;
28170;SDS011;15458;53.346;-1.688;2022-08-03T15:10:49;9.45;;;1.60;;
28170;SDS011;15458;53.346;-1.688;2022-08-03T15:13:15;2.78;;;1.30;;
28170;SDS011;15458;53.346;-1.688;2022-08-03T15:15:42;3.55;;;1.45;;
28170;SDS011;15458;53.346;-1.688;2022-08-03T15:18:07;4.75;;;1.33;;
28170;SDS011;15458;53.346;-1.688;2022-08-03T15:20:33;3.22;;;1.33;;
28170;SDS011;15458;53.346;-1.688;2022-08-03T15:22:59;5.13;;;1.00;;
28170;SDS011;15458;53.346;-1.688;2022-08-03T15:25:25;4.03;;;1.48;;
28170;SDS011;15458;53.346;-1.688;2022-08-03T15:27:51;3.28;;;1.08;;
28170;SDS011;15458;53.346;-1.688;2022-08-03T15:30:17;5.43;;;1.00;;
28170;SDS011;15458;53.346;-1.688;2022-08-03T15:32:43;7.40;;;1.48;;
28170;SDS011;15458;53.346;-1.688;2022-08-03T15:35:09;5.78;;;1.52;;
28170;SDS011;15458;53.346;-1.688;2022-08-03T15:37:34;4.43;;;1.33;;
28170;SDS011;15458;53.346;-1.688;2022-08-03T15:40:00;3.88;;;1.40;;
28170;SDS011;15458;53.346;-1.688;2022-08-03T15:42:27;3.95;;;1.30;;
28170;SDS011;15458;53.346;-1.688;2022-08-03T15:44:54;3.58;;;1.25;;